sensor_id;sensor_type;location;lat;lon;timestamp;P1;durP1;ratioP1;P2;durP2;ratioP2
33830;SDS011;20137;48.834;8.732;2023-12-20T00:01:35;5.00;;;0.90;;
33830;SDS011;20137;48.834;8.732;2023-12-20T00:04:01;4.53;;;0.82;;
33830;SDS011;20137;48.834;8.732;2023-12-20T00:06:27;3.08;;;0.70;;
33830;SDS011;20137;48.834;8.732;2023-12-20T00:08:53;1.45;;;0.70;;
33830;SDS011;20137;48.834;8.732;2023-12-20T00:11:19;1.20;;;0.70;;
33830;SDS011;20137;48.834;8.732;2023-12-20T00:13:45;1.83;;;0.75;;
33830;SDS011;20137;48.834;8.732;2023-12-20T00:16:11;2.03;;;0.60;;
33830;SDS011;20137;48.834;8.732;2023-12-20T00:18:37;1.30;;;0.45;;
33830;SDS011;20137;48.834;8.732;2023-12-20T00:21:04;2.22;;;0.50;;
33830;SDS011;20137;48.834;8.732;2023-12-20T00:23:30;1.15;;;0.68;;
33830;SDS011;20137;48.834;8.732;2023-12-20T00:25:56;0.80;;;0.55;;
33830;SDS011;20137;48.834;8.732;2023-12-20T00:28:22;1.20;;;0.50;;
33830;SDS011;20137;48.834;8.732;2023-12-20T00:30:48;1.25;;;0.50;;
33830;SDS011;20137;48.834;8.732;2023-12-20T00:33:14;1.30;;;0.60;;
33830;SDS011;20137;48.834;8.732;2023-12-20T00:35:40;1.00;;;0.60;;
33830;SDS011;20137;48.834;8.732;2023-12-20T00:38:06;1.40;;;0.63;;
33830;SDS011;20137;48.834;8.732;2023-12-20T00:40:33;2.10;;;0.80;;
33830;SDS011;20137;48.834;8.732;2023-12-20T00:42:59;0.45;;;0.45;;
33830;SDS011;20137;48.834;8.732;2023-12-20T00:45:25;0.75;;;0.50;;
33830;SDS011;20137;48.834;8.732;2023-12-20T00:47:51;1.40;;;0.55;;
33830;SDS011;20137;48.834;8.732;2023-12-20T00:50:17;1.30;;;0.57;;
33830;SDS011;20137;48.834;8.732;2023-12-20T00:52:43;0.70;;;0.50;;
33830;SDS011;20137;48.834;8.732;2023-12-20T00:55:09;2.28;;;0.52;;
33830;SDS011;20137;48.834;8.732;2023-12-20T00:57:35;0.55;;;0.40;;
33830;SDS011;20137;48.834;8.732;2023-12-20T01:00:01;2.67;;;0.47;;
33830;SDS011;20137;48.834;8.732;2023-12-20T01:02:28;1.23;;;0.35;;
33830;SDS011;20137;48.834;8.732;2023-12-20T01:04:54;1.77;;;0.40;;
33830;SDS011;20137;48.834;8.732;2023-12-20T01:07:20;0.88;;;0.40;;
33830;SDS011;20137;48.834;8.732;2023-12-20T01:09:46;0.28;;;0.22;;
33830;SDS011;20137;48.834;8.732;2023-12-20T01:12:12;0.25;;;0.25;;
33830;SDS011;20137;48.834;8.732;2023-12-20T01:14:38;0.20;;;0.20;;
33830;SDS011;20137;48.834;8.732;2023-12-20T01:17:04;0.30;;;0.30;;
33830;SDS011;20137;48.834;8.732;2023-12-20T01:19:30;0.30;;;0.20;;
33830;SDS011;20137;48.834;8.732;2023-12-20T01:21:56;0.20;;;0.20;;
33830;SDS011;20137;48.834;8.732;2023-12-20T01:24:22;1.55;;;0.20;;
33830;SDS011;20137;48.834;8.732;2023-12-20T01:26:48;0.20;;;0.20;;
33830;SDS011;20137;48.834;8.732;2023-12-20T01:29:15;0.20;;;0.20;;
33830;SDS011;20137;48.834;8.732;2023-12-20T01:31:41;0.20;;;0.20;;
33830;SDS011;20137;48.834;8.732;2023-12-20T01:34:06;0.22;;;0.22;;
33830;SDS011;20137;48.834;8.732;2023-12-20T01:36:32;0.22;;;0.22;;
33830;SDS011;20137;48.834;8.732;2023-12-20T01:38:58;1.20;;;0.25;;
33830;SDS011;20137;48.834;8.732;2023-12-20T01:41:24;0.30;;;0.20;;
33830;SDS011;20137;48.834;8.732;2023-12-20T01:43:50;0.22;;;0.20;;
33830;SDS011;20137;48.834;8.732;2023-12-20T01:46:18;0.25;;;0.20;;
33830;SDS011;20137;48.834;8.732;2023-12-20T01:48:44;0.63;;;0.20;;
33830;SDS011;20137;48.834;8.732;2023-12-20T01:51:10;0.40;;;0.28;;
33830;SDS011;20137;48.834;8.732;2023-12-20T01:53:36;0.25;;;0.25;;
33830;SDS011;20137;48.834;8.732;2023-12-20T01:56:03;0.63;;;0.20;;
33830;SDS011;20137;48.834;8.732;2023-12-20T01:58:30;0.20;;;0.20;;
33830;SDS011;20137;48.834;8.732;2023-12-20T02:00:56;0.30;;;0.30;;
33830;SDS011;20137;48.834;8.732;2023-12-20T02:03:23;0.15;;;0.15;;
33830;SDS011;20137;48.834;8.732;2023-12-20T02:05:49;0.30;;;0.30;;
33830;SDS011;20137;48.834;8.732;2023-12-20T02:08:15;0.20;;;0.20;;
33830;SDS011;20137;48.834;8.732;2023-12-20T02:10:41;0.85;;;0.20;;
33830;SDS011;20137;48.834;8.732;2023-12-20T02:13:08;0.55;;;0.30;;
33830;SDS011;20137;48.834;8.732;2023-12-20T02:15:34;0.22;;;0.22;;
33830;SDS011;20137;48.834;8.732;2023-12-20T02:18:02;0.30;;;0.30;;
33830;SDS011;20137;48.834;8.732;2023-12-20T02:20:28;0.60;;;0.40;;
33830;SDS011;20137;48.834;8.732;2023-12-20T02:22:54;0.57;;;0.40;;
33830;SDS011;20137;48.834;8.732;2023-12-20T02:25:20;1.48;;;0.35;;
33830;SDS011;20137;48.834;8.732;2023-12-20T02:27:46;1.70;;;0.50;;
33830;SDS011;20137;48.834;8.732;2023-12-20T02:30:13;0.32;;;0.28;;
33830;SDS011;20137;48.834;8.732;2023-12-20T02:32:39;0.20;;;0.20;;
33830;SDS011;20137;48.834;8.732;2023-12-20T02:35:05;0.40;;;0.30;;
33830;SDS011;20137;48.834;8.732;2023-12-20T02:37:32;0.30;;;0.30;;
33830;SDS011;20137;48.834;8.732;2023-12-20T02:39:59;0.40;;;0.32;;
33830;SDS011;20137;48.834;8.732;2023-12-20T02:42:25;1.05;;;0.20;;
33830;SDS011;20137;48.834;8.732;2023-12-20T02:44:51;0.30;;;0.30;;
33830;SDS011;20137;48.834;8.732;2023-12-20T02:47:17;0.40;;;0.30;;
33830;SDS011;20137;48.834;8.732;2023-12-20T02:49:43;1.67;;;0.28;;
33830;SDS011;20137;48.834;8.732;2023-12-20T02:52:09;0.30;;;0.22;;
33830;SDS011;20137;48.834;8.732;2023-12-20T02:54:35;1.30;;;0.30;;
33830;SDS011;20137;48.834;8.732;2023-12-20T02:57:01;0.47;;;0.20;;
33830;SDS011;20137;48.834;8.732;2023-12-20T02:59:27;0.50;;;0.22;;
33830;SDS011;20137;48.834;8.732;2023-12-20T03:01:53;0.47;;;0.30;;
33830;SDS011;20137;48.834;8.732;2023-12-20T03:04:19;0.40;;;0.32;;
33830;SDS011;20137;48.834;8.732;2023-12-20T03:06:45;0.43;;;0.35;;
33830;SDS011;20137;48.834;8.732;2023-12-20T03:09:11;1.33;;;0.40;;
33830;SDS011;20137;48.834;8.732;2023-12-20T03:11:37;0.38;;;0.28;;
33830;SDS011;20137;48.834;8.732;2023-12-20T03:14:03;0.80;;;0.40;;
33830;SDS011;20137;48.834;8.732;2023-12-20T03:16:29;0.45;;;0.22;;
33830;SDS011;20137;48.834;8.732;2023-12-20T03:18:58;0.28;;;0.20;;
33830;SDS011;20137;48.834;8.732;2023-12-20T03:21:23;0.40;;;0.40;;
33830;SDS011;20137;48.834;8.732;2023-12-20T03:23:49;0.52;;;0.22;;
33830;SDS011;20137;48.834;8.732;2023-12-20T03:26:15;0.60;;;0.30;;
33830;SDS011;20137;48.834;8.732;2023-12-20T03:28:41;0.52;;;0.30;;
33830;SDS011;20137;48.834;8.732;2023-12-20T03:31:09;0.55;;;0.30;;
33830;SDS011;20137;48.834;8.732;2023-12-20T03:33:35;0.50;;;0.50;;
33830;SDS011;20137;48.834;8.732;2023-12-20T03:36:01;0.57;;;0.30;;
33830;SDS011;20137;48.834;8.732;2023-12-20T03:38:27;1.30;;;0.22;;
33830;SDS011;20137;48.834;8.732;2023-12-20T03:40:53;0.80;;;0.40;;
33830;SDS011;20137;48.834;8.732;2023-12-20T03:43:19;0.30;;;0.30;;
33830;SDS011;20137;48.834;8.732;2023-12-20T03:45:45;0.20;;;0.20;;
33830;SDS011;20137;48.834;8.732;2023-12-20T03:48:11;0.40;;;0.30;;
33830;SDS011;20137;48.834;8.732;2023-12-20T03:50:37;0.25;;;0.20;;
33830;SDS011;20137;48.834;8.732;2023-12-20T03:53:03;0.47;;;0.28;;
33830;SDS011;20137;48.834;8.732;2023-12-20T03:55:29;0.25;;;0.22;;
33830;SDS011;20137;48.834;8.732;2023-12-20T03:57:55;0.43;;;0.35;;
33830;SDS011;20137;48.834;8.732;2023-12-20T04:00:21;0.40;;;0.40;;
33830;SDS011;20137;48.834;8.732;2023-12-20T04:02:47;0.38;;;0.30;;
33830;SDS011;20137;48.834;8.732;2023-12-20T04:05:13;0.93;;;0.25;;
33830;SDS011;20137;48.834;8.732;2023-12-20T04:07:39;0.25;;;0.25;;
33830;SDS011;20137;48.834;8.732;2023-12-20T04:10:05;0.30;;;0.30;;
33830;SDS011;20137;48.834;8.732;2023-12-20T04:12:32;0.50;;;0.50;;
33830;SDS011;20137;48.834;8.732;2023-12-20T04:14:58;0.40;;;0.30;;
33830;SDS011;20137;48.834;8.732;2023-12-20T04:17:24;0.60;;;0.30;;
33830;SDS011;20137;48.834;8.732;2023-12-20T04:19:51;1.15;;;0.35;;
33830;SDS011;20137;48.834;8.732;2023-12-20T04:22:20;0.20;;;0.20;;
33830;SDS011;20137;48.834;8.732;2023-12-20T04:24:46;1.13;;;0.20;;
33830;SDS011;20137;48.834;8.732;2023-12-20T04:27:12;1.67;;;0.30;;
33830;SDS011;20137;48.834;8.732;2023-12-20T04:29:38;0.30;;;0.30;;
33830;SDS011;20137;48.834;8.732;2023-12-20T04:32:04;0.88;;;0.40;;
33830;SDS011;20137;48.834;8.732;2023-12-20T04:34:30;0.30;;;0.30;;
33830;SDS011;20137;48.834;8.732;2023-12-20T04:36:56;0.82;;;0.30;;
33830;SDS011;20137;48.834;8.732;2023-12-20T04:39:22;0.30;;;0.20;;
33830;SDS011;20137;48.834;8.732;2023-12-20T04:41:48;0.57;;;0.40;;
33830;SDS011;20137;48.834;8.732;2023-12-20T04:44:15;0.45;;;0.30;;
33830;SDS011;20137;48.834;8.732;2023-12-20T04:46:41;0.75;;;0.40;;
33830;SDS011;20137;48.834;8.732;2023-12-20T04:49:07;0.55;;;0.50;;
33830;SDS011;20137;48.834;8.732;2023-12-20T04:51:33;0.60;;;0.60;;
33830;SDS011;20137;48.834;8.732;2023-12-20T04:53:59;1.75;;;0.95;;
33830;SDS011;20137;48.834;8.732;2023-12-20T04:56:25;1.00;;;0.80;;
33830;SDS011;20137;48.834;8.732;2023-12-20T04:58:51;1.33;;;0.85;;
33830;SDS011;20137;48.834;8.732;2023-12-20T05:01:17;1.15;;;0.82;;
33830;SDS011;20137;48.834;8.732;2023-12-20T05:03:43;1.00;;;0.70;;
33830;SDS011;20137;48.834;8.732;2023-12-20T05:06:10;1.30;;;0.88;;
33830;SDS011;20137;48.834;8.732;2023-12-20T05:08:36;1.13;;;0.85;;
33830;SDS011;20137;48.834;8.732;2023-12-20T05:11:02;1.05;;;0.60;;
33830;SDS011;20137;48.834;8.732;2023-12-20T05:13:28;1.33;;;0.70;;
33830;SDS011;20137;48.834;8.732;2023-12-20T05:15:54;0.70;;;0.68;;
33830;SDS011;20137;48.834;8.732;2023-12-20T05:18:20;0.80;;;0.70;;
33830;SDS011;20137;48.834;8.732;2023-12-20T05:20:46;2.72;;;0.73;;
33830;SDS011;20137;48.834;8.732;2023-12-20T05:23:13;1.10;;;1.00;;
33830;SDS011;20137;48.834;8.732;2023-12-20T05:25:39;1.00;;;0.73;;
33830;SDS011;20137;48.834;8.732;2023-12-20T05:28:05;1.05;;;0.93;;
33830;SDS011;20137;48.834;8.732;2023-12-20T05:30:31;1.30;;;0.90;;
33830;SDS011;20137;48.834;8.732;2023-12-20T05:32:57;1.40;;;1.00;;
33830;SDS011;20137;48.834;8.732;2023-12-20T05:35:23;2.65;;;0.93;;
33830;SDS011;20137;48.834;8.732;2023-12-20T05:37:49;1.95;;;1.05;;
33830;SDS011;20137;48.834;8.732;2023-12-20T05:40:15;1.67;;;1.20;;
33830;SDS011;20137;48.834;8.732;2023-12-20T05:42:41;1.13;;;0.95;;
33830;SDS011;20137;48.834;8.732;2023-12-20T05:45:08;1.15;;;1.05;;
33830;SDS011;20137;48.834;8.732;2023-12-20T05:47:35;2.22;;;0.70;;
33830;SDS011;20137;48.834;8.732;2023-12-20T05:50:01;1.67;;;0.70;;
33830;SDS011;20137;48.834;8.732;2023-12-20T05:52:29;1.08;;;0.77;;
33830;SDS011;20137;48.834;8.732;2023-12-20T05:54:55;1.20;;;0.90;;
33830;SDS011;20137;48.834;8.732;2023-12-20T05:57:23;1.10;;;1.00;;
33830;SDS011;20137;48.834;8.732;2023-12-20T05:59:48;1.20;;;1.00;;
33830;SDS011;20137;48.834;8.732;2023-12-20T06:02:14;1.40;;;0.90;;
33830;SDS011;20137;48.834;8.732;2023-12-20T06:04:44;1.23;;;0.90;;
33830;SDS011;20137;48.834;8.732;2023-12-20T06:07:13;1.10;;;0.70;;
33830;SDS011;20137;48.834;8.732;2023-12-20T06:09:39;1.02;;;0.93;;
33830;SDS011;20137;48.834;8.732;2023-12-20T06:12:05;2.00;;;0.90;;
33830;SDS011;20137;48.834;8.732;2023-12-20T06:14:31;1.92;;;1.23;;
33830;SDS011;20137;48.834;8.732;2023-12-20T06:16:57;2.45;;;1.50;;
33830;SDS011;20137;48.834;8.732;2023-12-20T06:19:23;1.63;;;1.30;;
33830;SDS011;20137;48.834;8.732;2023-12-20T06:21:49;2.00;;;1.63;;
33830;SDS011;20137;48.834;8.732;2023-12-20T06:24:15;3.22;;;1.50;;
33830;SDS011;20137;48.834;8.732;2023-12-20T06:26:41;4.60;;;2.00;;
33830;SDS011;20137;48.834;8.732;2023-12-20T06:29:07;2.42;;;2.13;;
33830;SDS011;20137;48.834;8.732;2023-12-20T06:31:33;4.28;;;2.42;;
33830;SDS011;20137;48.834;8.732;2023-12-20T06:34:00;3.50;;;2.67;;
33830;SDS011;20137;48.834;8.732;2023-12-20T06:36:26;3.47;;;2.72;;
33830;SDS011;20137;48.834;8.732;2023-12-20T06:38:52;4.80;;;3.20;;
33830;SDS011;20137;48.834;8.732;2023-12-20T06:41:18;5.97;;;3.00;;
33830;SDS011;20137;48.834;8.732;2023-12-20T06:43:45;5.03;;;3.65;;
33830;SDS011;20137;48.834;8.732;2023-12-20T06:46:12;5.80;;;4.03;;
33830;SDS011;20137;48.834;8.732;2023-12-20T06:48:38;5.50;;;4.03;;
33830;SDS011;20137;48.834;8.732;2023-12-20T06:51:05;4.47;;;3.50;;
33830;SDS011;20137;48.834;8.732;2023-12-20T06:53:31;4.63;;;2.83;;
33830;SDS011;20137;48.834;8.732;2023-12-20T06:55:57;4.10;;;2.83;;
33830;SDS011;20137;48.834;8.732;2023-12-20T06:58:23;3.75;;;2.90;;
33830;SDS011;20137;48.834;8.732;2023-12-20T07:00:49;6.45;;;2.97;;
33830;SDS011;20137;48.834;8.732;2023-12-20T07:03:16;5.45;;;3.30;;
33830;SDS011;20137;48.834;8.732;2023-12-20T07:05:42;6.35;;;3.35;;
33830;SDS011;20137;48.834;8.732;2023-12-20T07:08:08;5.78;;;4.05;;
33830;SDS011;20137;48.834;8.732;2023-12-20T07:10:35;5.68;;;4.38;;
33830;SDS011;20137;48.834;8.732;2023-12-20T07:13:01;6.07;;;4.07;;
33830;SDS011;20137;48.834;8.732;2023-12-20T07:15:28;5.18;;;3.97;;
33830;SDS011;20137;48.834;8.732;2023-12-20T07:17:54;6.57;;;4.35;;
33830;SDS011;20137;48.834;8.732;2023-12-20T07:20:20;5.88;;;4.05;;
33830;SDS011;20137;48.834;8.732;2023-12-20T07:22:46;6.30;;;4.68;;
33830;SDS011;20137;48.834;8.732;2023-12-20T07:25:12;6.22;;;5.13;;
33830;SDS011;20137;48.834;8.732;2023-12-20T07:27:38;6.47;;;4.50;;
33830;SDS011;20137;48.834;8.732;2023-12-20T07:30:05;7.85;;;4.90;;
33830;SDS011;20137;48.834;8.732;2023-12-20T07:32:31;7.38;;;5.20;;
33830;SDS011;20137;48.834;8.732;2023-12-20T07:34:57;6.72;;;5.05;;
33830;SDS011;20137;48.834;8.732;2023-12-20T07:37:23;8.02;;;5.22;;
33830;SDS011;20137;48.834;8.732;2023-12-20T07:39:49;7.63;;;5.00;;
33830;SDS011;20137;48.834;8.732;2023-12-20T07:42:15;6.32;;;4.97;;
33830;SDS011;20137;48.834;8.732;2023-12-20T07:44:41;13.50;;;4.97;;
33830;SDS011;20137;48.834;8.732;2023-12-20T07:47:07;6.38;;;4.85;;
33830;SDS011;20137;48.834;8.732;2023-12-20T07:49:33;7.20;;;4.68;;
33830;SDS011;20137;48.834;8.732;2023-12-20T07:51:59;6.97;;;4.55;;
33830;SDS011;20137;48.834;8.732;2023-12-20T07:54:25;5.68;;;4.30;;
33830;SDS011;20137;48.834;8.732;2023-12-20T07:56:51;8.10;;;5.00;;
33830;SDS011;20137;48.834;8.732;2023-12-20T07:59:17;7.03;;;4.43;;
33830;SDS011;20137;48.834;8.732;2023-12-20T08:01:43;10.43;;;5.18;;
33830;SDS011;20137;48.834;8.732;2023-12-20T08:04:09;7.57;;;3.92;;
33830;SDS011;20137;48.834;8.732;2023-12-20T08:06:35;5.90;;;4.25;;
33830;SDS011;20137;48.834;8.732;2023-12-20T08:09:01;6.88;;;3.88;;
33830;SDS011;20137;48.834;8.732;2023-12-20T08:11:28;11.35;;;4.32;;
33830;SDS011;20137;48.834;8.732;2023-12-20T08:13:54;9.48;;;4.82;;
33830;SDS011;20137;48.834;8.732;2023-12-20T08:16:20;5.80;;;4.07;;
33830;SDS011;20137;48.834;8.732;2023-12-20T08:18:47;5.68;;;4.47;;
33830;SDS011;20137;48.834;8.732;2023-12-20T08:21:13;10.05;;;4.78;;
33830;SDS011;20137;48.834;8.732;2023-12-20T08:23:39;9.10;;;4.82;;
33830;SDS011;20137;48.834;8.732;2023-12-20T08:26:05;8.25;;;4.40;;
33830;SDS011;20137;48.834;8.732;2023-12-20T08:28:31;5.80;;;3.60;;
33830;SDS011;20137;48.834;8.732;2023-12-20T08:30:57;7.32;;;3.85;;
33830;SDS011;20137;48.834;8.732;2023-12-20T08:33:23;6.63;;;2.95;;
33830;SDS011;20137;48.834;8.732;2023-12-20T08:35:50;5.85;;;3.35;;
33830;SDS011;20137;48.834;8.732;2023-12-20T08:38:15;7.30;;;2.90;;
33830;SDS011;20137;48.834;8.732;2023-12-20T08:40:42;11.50;;;2.90;;
33830;SDS011;20137;48.834;8.732;2023-12-20T08:43:08;6.05;;;2.20;;
33830;SDS011;20137;48.834;8.732;2023-12-20T08:45:34;5.28;;;2.88;;
33830;SDS011;20137;48.834;8.732;2023-12-20T08:48:00;8.20;;;2.08;;
33830;SDS011;20137;48.834;8.732;2023-12-20T08:50:26;5.53;;;2.20;;
33830;SDS011;20137;48.834;8.732;2023-12-20T08:52:52;6.38;;;2.58;;
33830;SDS011;20137;48.834;8.732;2023-12-20T08:55:19;7.95;;;2.20;;
33830;SDS011;20137;48.834;8.732;2023-12-20T08:57:45;7.07;;;1.75;;
33830;SDS011;20137;48.834;8.732;2023-12-20T09:00:11;5.97;;;2.13;;
33830;SDS011;20137;48.834;8.732;2023-12-20T09:02:37;8.38;;;1.60;;
33830;SDS011;20137;48.834;8.732;2023-12-20T09:05:04;9.05;;;2.10;;
33830;SDS011;20137;48.834;8.732;2023-12-20T09:07:30;7.53;;;1.88;;
33830;SDS011;20137;48.834;8.732;2023-12-20T09:09:57;10.85;;;2.13;;
33830;SDS011;20137;48.834;8.732;2023-12-20T09:12:23;6.53;;;2.20;;
33830;SDS011;20137;48.834;8.732;2023-12-20T09:14:49;8.05;;;2.20;;
33830;SDS011;20137;48.834;8.732;2023-12-20T09:17:16;4.90;;;2.20;;
33830;SDS011;20137;48.834;8.732;2023-12-20T09:19:42;7.60;;;1.88;;
33830;SDS011;20137;48.834;8.732;2023-12-20T09:22:11;11.65;;;2.40;;
33830;SDS011;20137;48.834;8.732;2023-12-20T09:24:38;10.20;;;3.03;;
33830;SDS011;20137;48.834;8.732;2023-12-20T09:27:05;6.72;;;1.88;;
33830;SDS011;20137;48.834;8.732;2023-12-20T09:29:31;9.65;;;2.20;;
33830;SDS011;20137;48.834;8.732;2023-12-20T09:31:57;13.07;;;5.82;;
33830;SDS011;20137;48.834;8.732;2023-12-20T09:34:23;8.88;;;2.38;;
33830;SDS011;20137;48.834;8.732;2023-12-20T09:36:50;7.82;;;2.10;;
33830;SDS011;20137;48.834;8.732;2023-12-20T09:39:17;11.90;;;3.25;;
33830;SDS011;20137;48.834;8.732;2023-12-20T09:42:03;5.93;;;1.80;;
33830;SDS011;20137;48.834;8.732;2023-12-20T09:44:29;8.68;;;2.08;;
33830;SDS011;20137;48.834;8.732;2023-12-20T09:46:56;7.78;;;2.45;;
33830;SDS011;20137;48.834;8.732;2023-12-20T09:49:22;12.80;;;3.40;;
33830;SDS011;20137;48.834;8.732;2023-12-20T09:51:50;8.38;;;2.17;;
33830;SDS011;20137;48.834;8.732;2023-12-20T09:54:17;6.90;;;2.03;;
33830;SDS011;20137;48.834;8.732;2023-12-20T09:56:44;13.65;;;4.18;;
33830;SDS011;20137;48.834;8.732;2023-12-20T09:59:10;9.88;;;3.00;;
33830;SDS011;20137;48.834;8.732;2023-12-20T10:01:37;10.48;;;3.10;;
33830;SDS011;20137;48.834;8.732;2023-12-20T10:04:07;10.07;;;2.65;;
33830;SDS011;20137;48.834;8.732;2023-12-20T10:06:43;5.80;;;2.28;;
33830;SDS011;20137;48.834;8.732;2023-12-20T10:09:10;14.38;;;2.90;;
33830;SDS011;20137;48.834;8.732;2023-12-20T10:11:37;9.15;;;2.65;;
33830;SDS011;20137;48.834;8.732;2023-12-20T10:14:03;10.35;;;2.70;;
33830;SDS011;20137;48.834;8.732;2023-12-20T10:16:30;10.52;;;2.72;;
33830;SDS011;20137;48.834;8.732;2023-12-20T10:18:56;7.05;;;2.75;;
33830;SDS011;20137;48.834;8.732;2023-12-20T10:21:22;7.80;;;2.47;;
33830;SDS011;20137;48.834;8.732;2023-12-20T10:23:51;10.23;;;2.45;;
33830;SDS011;20137;48.834;8.732;2023-12-20T10:26:23;7.43;;;2.55;;
33830;SDS011;20137;48.834;8.732;2023-12-20T10:28:56;5.60;;;2.15;;
33830;SDS011;20137;48.834;8.732;2023-12-20T10:31:32;10.50;;;2.65;;
33830;SDS011;20137;48.834;8.732;2023-12-20T10:33:58;8.48;;;2.80;;
33830;SDS011;20137;48.834;8.732;2023-12-20T10:36:25;10.52;;;2.47;;
33830;SDS011;20137;48.834;8.732;2023-12-20T10:38:52;11.07;;;2.38;;
33830;SDS011;20137;48.834;8.732;2023-12-20T10:41:19;12.45;;;3.13;;
33830;SDS011;20137;48.834;8.732;2023-12-20T10:43:51;10.05;;;3.33;;
33830;SDS011;20137;48.834;8.732;2023-12-20T10:46:17;17.25;;;2.67;;
33830;SDS011;20137;48.834;8.732;2023-12-20T10:48:44;6.72;;;2.40;;
33830;SDS011;20137;48.834;8.732;2023-12-20T10:51:11;7.05;;;2.35;;
33830;SDS011;20137;48.834;8.732;2023-12-20T10:53:37;7.65;;;2.58;;
33830;SDS011;20137;48.834;8.732;2023-12-20T10:56:05;10.25;;;2.45;;
33830;SDS011;20137;48.834;8.732;2023-12-20T10:58:32;14.55;;;3.05;;
33830;SDS011;20137;48.834;8.732;2023-12-20T11:01:00;13.10;;;2.60;;
33830;SDS011;20137;48.834;8.732;2023-12-20T11:03:30;10.13;;;2.58;;
33830;SDS011;20137;48.834;8.732;2023-12-20T11:06:22;6.22;;;2.15;;
33830;SDS011;20137;48.834;8.732;2023-12-20T11:08:52;8.43;;;2.38;;
33830;SDS011;20137;48.834;8.732;2023-12-20T11:11:34;9.43;;;2.00;;
33830;SDS011;20137;48.834;8.732;2023-12-20T11:14:08;11.55;;;2.30;;
33830;SDS011;20137;48.834;8.732;2023-12-20T11:21:29;8.50;;;2.15;;
33830;SDS011;20137;48.834;8.732;2023-12-20T11:23:55;9.57;;;2.70;;
33830;SDS011;20137;48.834;8.732;2023-12-20T11:26:27;11.05;;;2.97;;
33830;SDS011;20137;48.834;8.732;2023-12-20T11:28:54;14.82;;;2.80;;
33830;SDS011;20137;48.834;8.732;2023-12-20T11:31:20;10.88;;;2.50;;
33830;SDS011;20137;48.834;8.732;2023-12-20T11:33:46;11.27;;;2.40;;
33830;SDS011;20137;48.834;8.732;2023-12-20T11:36:18;11.15;;;3.17;;
33830;SDS011;20137;48.834;8.732;2023-12-20T11:38:53;9.38;;;2.97;;
33830;SDS011;20137;48.834;8.732;2023-12-20T11:41:21;12.57;;;2.42;;
33830;SDS011;20137;48.834;8.732;2023-12-20T11:43:49;8.13;;;2.28;;
33830;SDS011;20137;48.834;8.732;2023-12-20T11:46:18;10.90;;;2.30;;
33830;SDS011;20137;48.834;8.732;2023-12-20T11:48:44;8.75;;;2.05;;
33830;SDS011;20137;48.834;8.732;2023-12-20T11:51:12;11.95;;;3.53;;
33830;SDS011;20137;48.834;8.732;2023-12-20T11:53:39;8.63;;;2.13;;
33830;SDS011;20137;48.834;8.732;2023-12-20T11:56:06;13.40;;;2.00;;
33830;SDS011;20137;48.834;8.732;2023-12-20T11:58:33;8.63;;;2.20;;
33830;SDS011;20137;48.834;8.732;2023-12-20T12:00:59;10.30;;;2.25;;
33830;SDS011;20137;48.834;8.732;2023-12-20T12:03:25;7.40;;;1.90;;
33830;SDS011;20137;48.834;8.732;2023-12-20T12:05:51;7.20;;;1.70;;
33830;SDS011;20137;48.834;8.732;2023-12-20T12:08:17;7.45;;;1.80;;
33830;SDS011;20137;48.834;8.732;2023-12-20T12:10:44;8.18;;;2.60;;
33830;SDS011;20137;48.834;8.732;2023-12-20T12:13:10;14.52;;;2.03;;
33830;SDS011;20137;48.834;8.732;2023-12-20T12:15:37;5.53;;;1.65;;
33830;SDS011;20137;48.834;8.732;2023-12-20T12:18:03;12.55;;;2.63;;
33830;SDS011;20137;48.834;8.732;2023-12-20T12:20:30;8.75;;;1.98;;
33830;SDS011;20137;48.834;8.732;2023-12-20T12:23:03;9.30;;;2.90;;
33830;SDS011;20137;48.834;8.732;2023-12-20T12:25:29;6.78;;;1.90;;
33830;SDS011;20137;48.834;8.732;2023-12-20T12:27:56;10.00;;;1.80;;
33830;SDS011;20137;48.834;8.732;2023-12-20T12:30:22;8.35;;;1.95;;
33830;SDS011;20137;48.834;8.732;2023-12-20T12:32:48;5.75;;;1.98;;
33830;SDS011;20137;48.834;8.732;2023-12-20T12:35:14;6.68;;;1.83;;
33830;SDS011;20137;48.834;8.732;2023-12-20T12:37:41;16.55;;;2.38;;
33830;SDS011;20137;48.834;8.732;2023-12-20T12:42:33;6.05;;;1.50;;
33830;SDS011;20137;48.834;8.732;2023-12-20T12:44:59;6.80;;;1.83;;
33830;SDS011;20137;48.834;8.732;2023-12-20T12:47:25;10.40;;;1.92;;
33830;SDS011;20137;48.834;8.732;2023-12-20T12:49:51;10.20;;;2.42;;
33830;SDS011;20137;48.834;8.732;2023-12-20T12:52:20;6.82;;;1.85;;
33830;SDS011;20137;48.834;8.732;2023-12-20T12:54:46;6.95;;;1.60;;
33830;SDS011;20137;48.834;8.732;2023-12-20T12:57:14;11.80;;;1.92;;
33830;SDS011;20137;48.834;8.732;2023-12-20T12:59:41;7.43;;;1.65;;
33830;SDS011;20137;48.834;8.732;2023-12-20T13:02:07;4.88;;;1.55;;
33830;SDS011;20137;48.834;8.732;2023-12-20T13:04:33;9.52;;;3.08;;
33830;SDS011;20137;48.834;8.732;2023-12-20T13:06:59;10.88;;;1.88;;
33830;SDS011;20137;48.834;8.732;2023-12-20T13:09:25;12.40;;;2.03;;
33830;SDS011;20137;48.834;8.732;2023-12-20T13:11:51;12.68;;;1.83;;
33830;SDS011;20137;48.834;8.732;2023-12-20T13:14:17;11.75;;;1.80;;
33830;SDS011;20137;48.834;8.732;2023-12-20T13:16:43;4.97;;;1.58;;
33830;SDS011;20137;48.834;8.732;2023-12-20T13:19:10;6.97;;;2.20;;
33830;SDS011;20137;48.834;8.732;2023-12-20T13:21:36;7.57;;;2.25;;
33830;SDS011;20137;48.834;8.732;2023-12-20T13:24:02;8.82;;;2.00;;
33830;SDS011;20137;48.834;8.732;2023-12-20T13:26:29;8.90;;;2.20;;
33830;SDS011;20137;48.834;8.732;2023-12-20T13:28:55;13.18;;;4.80;;
33830;SDS011;20137;48.834;8.732;2023-12-20T13:31:21;15.35;;;2.95;;
33830;SDS011;20137;48.834;8.732;2023-12-20T13:33:47;7.80;;;2.22;;
33830;SDS011;20137;48.834;8.732;2023-12-20T13:36:13;11.25;;;2.58;;
33830;SDS011;20137;48.834;8.732;2023-12-20T13:38:39;11.75;;;2.38;;
33830;SDS011;20137;48.834;8.732;2023-12-20T13:41:05;18.05;;;4.18;;
33830;SDS011;20137;48.834;8.732;2023-12-20T13:43:31;11.95;;;3.25;;
33830;SDS011;20137;48.834;8.732;2023-12-20T13:45:58;8.65;;;3.05;;
33830;SDS011;20137;48.834;8.732;2023-12-20T13:48:24;10.00;;;2.08;;
33830;SDS011;20137;48.834;8.732;2023-12-20T13:50:50;6.28;;;1.92;;
33830;SDS011;20137;48.834;8.732;2023-12-20T13:53:16;9.43;;;2.97;;
33830;SDS011;20137;48.834;8.732;2023-12-20T13:55:42;17.05;;;3.40;;
33830;SDS011;20137;48.834;8.732;2023-12-20T13:58:08;7.88;;;2.58;;
33830;SDS011;20137;48.834;8.732;2023-12-20T14:00:37;11.15;;;3.00;;
33830;SDS011;20137;48.834;8.732;2023-12-20T14:03:03;10.15;;;2.80;;
33830;SDS011;20137;48.834;8.732;2023-12-20T14:05:30;14.35;;;2.65;;
33830;SDS011;20137;48.834;8.732;2023-12-20T14:07:56;15.88;;;4.28;;
33830;SDS011;20137;48.834;8.732;2023-12-20T14:10:22;9.95;;;3.15;;
33830;SDS011;20137;48.834;8.732;2023-12-20T14:12:51;14.60;;;3.00;;
33830;SDS011;20137;48.834;8.732;2023-12-20T14:15:17;10.05;;;2.35;;
33830;SDS011;20137;48.834;8.732;2023-12-20T14:17:43;14.15;;;5.07;;
33830;SDS011;20137;48.834;8.732;2023-12-20T14:20:09;13.98;;;3.65;;
33830;SDS011;20137;48.834;8.732;2023-12-20T14:22:37;10.43;;;2.55;;
33830;SDS011;20137;48.834;8.732;2023-12-20T14:25:04;10.38;;;3.33;;
33830;SDS011;20137;48.834;8.732;2023-12-20T14:27:31;22.50;;;8.35;;
33830;SDS011;20137;48.834;8.732;2023-12-20T14:29:57;18.80;;;12.05;;
33830;SDS011;20137;48.834;8.732;2023-12-20T14:32:24;17.50;;;10.77;;
33830;SDS011;20137;48.834;8.732;2023-12-20T14:34:52;14.23;;;4.88;;
33830;SDS011;20137;48.834;8.732;2023-12-20T14:37:19;15.77;;;2.97;;
33830;SDS011;20137;48.834;8.732;2023-12-20T14:39:45;12.20;;;2.90;;
33830;SDS011;20137;48.834;8.732;2023-12-20T14:42:11;15.80;;;2.42;;
33830;SDS011;20137;48.834;8.732;2023-12-20T14:44:41;6.25;;;2.30;;
33830;SDS011;20137;48.834;8.732;2023-12-20T14:47:07;10.48;;;2.65;;
33830;SDS011;20137;48.834;8.732;2023-12-20T14:49:33;8.80;;;2.10;;